Time,TemperatureF,DewpointF,PressureIn,WindDirection,WindDirectionDegrees,WindSpeedMPH,WindSpeedGustMPH,Humidity,HourlyPrecipIn,Conditions,Clouds,dailyrainin,SoftwareType,DateUTC
2013-01-22 00:00:00,29.1,18.1,29.80,ESE,113,0.0,11.7,63,0.00,,,0.00,heavyweathercustom,2013-01-22 05:00:00,
2013-01-22 00:10:00,29.1,18.1,29.80,WNW,293,0.0,11.7,63,0.00,,,0.00,heavyweathercustom,2013-01-22 05:10:00,
2013-01-22 00:20:00,28.9,17.9,29.79,South,180,3.3,11.7,63,0.00,,,0.00,heavyweathercustom,2013-01-22 05:20:00,
2013-01-22 00:32:00,28.8,17.1,29.79,SSW,203,0.0,9.5,61,0.00,,,0.00,heavyweathercustom,2013-01-22 05:32:00,
2013-01-22 00:40:00,28.4,15.9,29.79,NW,315,0.0,9.5,59,0.00,,,0.00,heavyweathercustom,2013-01-22 05:40:00,
2013-01-22 00:50:00,28.2,16.1,29.79,East,90,3.3,9.5,60,0.00,,,0.00,heavyweathercustom,2013-01-22 05:50:00,
2013-01-22 01:00:00,28.2,15.7,29.80,ESE,113,0.0,23.7,59,0.00,,,0.00,heavyweathercustom,2013-01-22 06:00:00,
2013-01-22 01:10:00,28.0,15.2,29.80,SE,135,3.3,23.7,58,0.00,,,0.00,heavyweathercustom,2013-01-22 06:10:00,
2013-01-22 01:20:00,27.7,14.1,29.80,ESE,113,0.0,23.7,56,0.00,,,0.00,heavyweathercustom,2013-01-22 06:20:00,
2013-01-22 01:32:00,27.3,13.7,29.81,ESE,113,0.0,23.7,56,0.00,,,0.00,heavyweathercustom,2013-01-22 06:32:00,
2013-01-22 01:40:00,27.1,13.5,29.81,WNW,293,0.0,15.7,56,0.00,,,0.00,heavyweathercustom,2013-01-22 06:40:00,
2013-01-22 01:50:00,27.1,13.1,29.81,ESE,113,0.0,15.7,55,0.00,,,0.00,heavyweathercustom,2013-01-22 06:50:00,
2013-01-22 02:00:00,27.0,12.6,29.82,WNW,293,0.0,15.7,54,0.00,,,0.00,heavyweathercustom,2013-01-22 07:00:00,
2013-01-22 02:10:00,26.8,12.0,29.82,East,90,10.1,13.4,53,0.00,,,0.00,heavyweathercustom,2013-01-22 07:10:00,
2013-01-22 02:20:00,26.8,11.6,29.83,SW,225,0.0,13.4,52,0.00,,,0.00,heavyweathercustom,2013-01-22 07:20:00,
2013-01-22 02:32:00,26.6,11.4,29.83,ESE,113,3.3,13.4,52,0.00,,,0.00,heavyweathercustom,2013-01-22 07:32:00,
2013-01-22 02:40:00,26.6,11.4,29.83,East,90,3.3,13.8,52,0.00,,,0.00,heavyweathercustom,2013-01-22 07:40:00,
2013-01-22 02:50:00,26.2,10.6,29.84,SW,225,0.0,13.8,51,0.00,,,0.00,heavyweathercustom,2013-01-22 07:50:00,
2013-01-22 03:00:00,26.2,11.0,29.84,ESE,113,6.8,22.0,52,0.00,,,0.00,heavyweathercustom,2013-01-22 08:00:00,
2013-01-22 03:10:00,26.2,11.0,29.84,SSE,158,0.0,22.0,52,0.00,,,0.00,heavyweathercustom,2013-01-22 08:10:00,
2013-01-22 03:20:00,25.9,10.7,29.84,SE,135,0.0,22.0,52,0.00,,,0.00,heavyweathercustom,2013-01-22 08:20:00,
2013-01-22 03:32:00,25.5,9.9,29.84,ESE,113,0.0,22.0,51,0.00,,,0.00,heavyweathercustom,2013-01-22 08:32:00,
2013-01-22 03:40:00,25.3,9.7,29.83,ESE,113,3.3,24.6,51,0.00,,,0.00,heavyweathercustom,2013-01-22 08:40:00,
2013-01-22 03:50:00,25.2,9.6,29.83,South,180,0.0,24.6,51,0.00,,,0.00,heavyweathercustom,2013-01-22 08:50:00,
2013-01-22 04:00:00,25.2,9.6,29.84,NW,315,0.0,12.5,51,0.00,,,0.00,heavyweathercustom,2013-01-22 09:00:00,
2013-01-22 04:10:00,25.2,9.6,29.84,ESE,113,0.0,12.5,51,0.00,,,0.00,heavyweathercustom,2013-01-22 09:10:00,
2013-01-22 04:20:00,25.0,9.5,29.86,SSE,158,0.0,12.5,51,0.00,,,0.00,heavyweathercustom,2013-01-22 09:20:00,
2013-01-22 04:32:00,24.6,9.1,29.86,ESE,113,0.0,12.5,51,0.00,,,0.00,heavyweathercustom,2013-01-22 09:32:00,
2013-01-22 04:40:00,24.4,8.9,29.87,SE,135,0.0,14.1,51,0.00,,,0.00,heavyweathercustom,2013-01-22 09:40:00,
2013-01-22 04:50:00,24.4,8.9,29.87,SE,135,0.0,14.1,51,0.00,,,0.00,heavyweathercustom,2013-01-22 09:50:00,
2013-01-22 05:00:00,24.4,8.9,29.88,WNW,293,0.0,14.1,51,0.00,,,0.00,heavyweathercustom,2013-01-22 10:00:00,
2013-01-22 05:10:00,24.4,10.2,29.89,NW,315,0.0,8.4,54,0.00,,,0.00,heavyweathercustom,2013-01-22 10:10:00,
2013-01-22 05:20:00,24.4,11.0,29.90,WNW,293,0.0,8.4,56,0.00,,,0.00,heavyweathercustom,2013-01-22 10:20:00,
2013-01-22 05:32:00,24.4,11.4,29.90,South,180,0.0,8.4,57,0.00,,,0.00,heavyweathercustom,2013-01-22 10:32:00,
2013-01-22 05:40:00,24.1,11.5,29.91,SW,225,0.0,8.4,58,0.00,,,0.00,heavyweathercustom,2013-01-22 10:40:00,
2013-01-22 05:50:00,24.1,11.9,29.91,SW,225,0.0,8.4,59,0.00,,,0.00,heavyweathercustom,2013-01-22 10:50:00,
2013-01-22 06:00:00,24.1,11.9,29.92,SE,135,0.0,8.4,59,0.00,,,0.00,heavyweathercustom,2013-01-22 11:00:00,
2013-01-22 06:10:00,24.1,11.9,29.92,SW,225,0.0,10.1,59,0.00,,,0.00,heavyweathercustom,2013-01-22 11:10:00,
2013-01-22 06:20:00,23.9,11.7,29.92,ESE,113,6.8,10.1,59,0.00,,,0.00,heavyweathercustom,2013-01-22 11:20:00,
2013-01-22 06:32:00,23.5,11.7,29.93,ESE,113,3.3,10.1,60,0.00,,,0.00,heavyweathercustom,2013-01-22 11:32:00,
2013-01-22 06:40:00,23.5,10.9,29.93,SE,135,0.0,10.1,58,0.00,,,0.00,heavyweathercustom,2013-01-22 11:40:00,
2013-01-22 06:50:00,22.8,9.9,29.94,South,180,6.8,11.7,57,0.00,,,0.00,heavyweathercustom,2013-01-22 11:50:00,
2013-01-22 07:02:00,22.5,9.6,29.94,ESE,113,0.0,11.7,57,0.00,,,0.00,heavyweathercustom,2013-01-22 12:02:00,
2013-01-22 07:10:00,22.6,9.7,29.94,SW,225,0.0,19.6,57,0.00,,,0.00,heavyweathercustom,2013-01-22 12:10:00,
2013-01-22 07:20:00,22.1,9.2,29.95,SE,135,0.0,19.6,57,0.00,,,0.00,heavyweathercustom,2013-01-22 12:20:00,
2013-01-22 07:32:00,21.7,8.8,29.96,SSW,203,3.3,19.6,57,0.00,,,0.00,heavyweathercustom,2013-01-22 12:32:00,
2013-01-22 07:40:00,21.6,8.8,29.96,SSE,158,6.8,22.0,57,0.00,,,0.00,heavyweathercustom,2013-01-22 12:40:00,
2013-01-22 07:50:00,21.6,8.4,29.96,ESE,113,3.3,22.0,56,0.00,,,0.00,heavyweathercustom,2013-01-22 12:50:00,
2013-01-22 08:02:00,21.6,8.4,29.97,SSW,203,0.0,22.0,56,0.00,,,0.00,heavyweathercustom,2013-01-22 13:02:00,
2013-01-22 08:10:00,21.9,8.6,29.97,ESE,113,0.0,19.6,56,0.00,,,0.00,heavyweathercustom,2013-01-22 13:10:00,
2013-01-22 08:20:00,21.6,8.4,29.97,West,270,0.0,19.6,56,0.00,,,0.00,heavyweathercustom,2013-01-22 13:20:00,
2013-01-22 08:32:00,21.7,8.5,29.97,ESE,113,0.0,19.6,56,0.00,,,0.00,heavyweathercustom,2013-01-22 13:32:00,
2013-01-22 08:40:00,22.3,9.0,29.98,ESE,113,0.0,19.6,56,0.00,,,0.00,heavyweathercustom,2013-01-22 13:40:00,
2013-01-22 08:50:00,22.6,9.3,29.98,WSW,248,0.0,9.5,56,0.00,,,0.00,heavyweathercustom,2013-01-22 13:50:00,
2013-01-22 09:02:00,22.3,9.0,29.99,ESE,113,6.8,9.5,56,0.00,,,0.00,heavyweathercustom,2013-01-22 14:02:00,
2013-01-22 09:10:00,22.3,9.8,29.99,SW,225,0.0,9.0,58,0.00,,,0.00,heavyweathercustom,2013-01-22 14:10:00,
2013-01-22 09:20:00,22.3,10.2,30.00,SW,225,0.0,9.0,59,0.00,,,0.00,heavyweathercustom,2013-01-22 14:20:00,
2013-01-22 09:32:00,22.3,10.2,30.00,ESE,113,0.0,9.0,59,0.00,,,0.00,heavyweathercustom,2013-01-22 14:32:00,
2013-01-22 09:40:00,22.1,10.7,30.00,SSE,158,0.0,9.0,61,0.00,,,0.00,heavyweathercustom,2013-01-22 14:40:00,
2013-01-22 09:50:00,21.9,10.5,30.01,SSE,158,0.0,9.0,61,0.00,,,0.00,heavyweathercustom,2013-01-22 14:50:00,
2013-01-22 10:02:00,21.6,10.3,30.00,South,180,0.0,14.1,61,0.00,,,0.00,heavyweathercustom,2013-01-22 15:02:00,
2013-01-22 10:10:00,21.9,9.4,30.00,North,0,0.0,14.1,58,0.00,,,0.00,heavyweathercustom,2013-01-22 15:10:00,
2013-01-22 10:20:00,22.1,8.8,30.00,WSW,248,0.0,15.0,56,0.00,,,0.00,heavyweathercustom,2013-01-22 15:20:00,
2013-01-22 10:32:00,22.6,8.5,30.00,WSW,248,0.0,15.0,54,0.00,,,0.00,heavyweathercustom,2013-01-22 15:32:00,
2013-01-22 10:40:00,22.8,8.3,30.01,ESE,113,0.0,15.0,53,0.00,,,0.00,heavyweathercustom,2013-01-22 15:40:00,
2013-01-22 10:50:00,22.5,7.6,30.01,SE,135,0.0,15.0,52,0.00,,,0.00,heavyweathercustom,2013-01-22 15:50:00,
2013-01-22 11:02:00,21.9,6.1,30.01,WNW,293,0.0,12.8,50,0.00,,,0.00,heavyweathercustom,2013-01-22 16:02:00,
2013-01-22 11:10:00,21.9,6.1,30.00,South,180,0.0,18.8,50,0.00,,,0.00,heavyweathercustom,2013-01-22 16:10:00,
2013-01-22 11:20:00,21.9,5.3,30.00,ESE,113,6.8,18.8,48,0.00,,,0.00,heavyweathercustom,2013-01-22 16:20:00,
2013-01-22 11:32:00,21.7,4.6,30.00,WNW,293,0.0,18.8,47,0.00,,,0.00,heavyweathercustom,2013-01-22 16:32:00,
2013-01-22 11:40:00,22.3,5.6,30.00,East,90,0.0,10.4,48,0.00,,,0.00,heavyweathercustom,2013-01-22 16:40:00,
2013-01-22 11:50:00,22.6,5.9,29.99,WSW,248,3.3,10.4,48,0.00,,,0.00,heavyweathercustom,2013-01-22 16:50:00,
2013-01-22 12:02:00,22.8,6.5,29.99,West,270,0.0,10.4,49,0.00,,,0.00,heavyweathercustom,2013-01-22 17:02:00,
2013-01-22 12:10:00,22.6,5.4,29.99,East,90,3.3,22.1,47,0.00,,,0.00,heavyweathercustom,2013-01-22 17:10:00,
2013-01-22 12:20:00,22.5,4.9,29.99,ENE,68,0.0,22.1,46,0.00,,,0.00,heavyweathercustom,2013-01-22 17:20:00,
2013-01-22 12:32:00,22.3,4.7,29.99,SE,135,6.8,22.1,46,0.00,,,0.00,heavyweathercustom,2013-01-22 17:32:00,
2013-01-22 12:40:00,22.1,4.5,29.98,WNW,293,0.0,22.1,46,0.00,,,0.00,heavyweathercustom,2013-01-22 17:40:00,
2013-01-22 12:50:00,21.9,3.4,29.98,East,90,0.0,22.1,44,0.00,,,0.00,heavyweathercustom,2013-01-22 17:50:00,
2013-01-22 13:02:00,21.9,3.9,29.98,SW,225,0.0,14.7,45,0.00,,,0.00,heavyweathercustom,2013-01-22 18:02:00,
2013-01-22 13:10:00,22.1,3.6,29.97,WNW,293,0.0,22.8,44,0.00,,,0.00,heavyweathercustom,2013-01-22 18:10:00,
2013-01-22 13:20:00,22.3,3.7,29.97,North,0,0.0,22.8,44,0.00,,,0.00,heavyweathercustom,2013-01-22 18:20:00,
2013-01-22 13:32:00,21.9,2.9,29.97,SW,225,0.0,22.8,43,0.00,,,0.00,heavyweathercustom,2013-01-22 18:32:00,
2013-01-22 13:40:00,21.9,2.9,29.97,WSW,248,0.0,27.1,43,0.00,,,0.00,heavyweathercustom,2013-01-22 18:40:00,
2013-01-22 13:50:00,21.9,2.4,29.97,ESE,113,0.0,27.1,42,0.00,,,0.00,heavyweathercustom,2013-01-22 18:50:00,
2013-01-22 14:02:00,22.3,2.7,29.97,WNW,293,0.0,27.1,42,0.00,,,0.00,heavyweathercustom,2013-01-22 19:02:00,
2013-01-22 14:10:00,22.1,2.5,29.97,ESE,113,0.0,14.1,42,0.00,,,0.00,heavyweathercustom,2013-01-22 19:10:00,
2013-01-22 14:20:00,22.1,2.0,29.98,ESE,113,0.0,14.1,41,0.00,,,0.00,heavyweathercustom,2013-01-22 19:20:00,
2013-01-22 14:32:00,21.9,1.9,29.98,NW,315,0.0,14.1,41,0.00,,,0.00,heavyweathercustom,2013-01-22 19:32:00,
2013-01-22 14:40:00,21.9,2.4,29.99,ESE,113,3.3,14.4,42,0.00,,,0.00,heavyweathercustom,2013-01-22 19:40:00,
2013-01-22 14:50:00,21.9,2.9,29.98,South,180,0.0,14.4,43,0.00,,,0.00,heavyweathercustom,2013-01-22 19:50:00,
2013-01-22 15:02:00,22.1,3.1,29.99,West,270,0.0,14.4,43,0.00,,,0.00,heavyweathercustom,2013-01-22 20:02:00,
2013-01-22 15:10:00,22.1,3.1,29.99,West,270,0.0,14.4,43,0.00,,,0.00,heavyweathercustom,2013-01-22 20:10:00,
2013-01-22 15:20:00,22.3,3.2,30.00,NNW,338,0.0,10.4,43,0.00,,,0.00,heavyweathercustom,2013-01-22 20:20:00,
2013-01-22 15:32:00,22.1,3.6,30.00,ESE,113,0.0,10.4,44,0.00,,,0.00,heavyweathercustom,2013-01-22 20:32:00,
2013-01-22 15:40:00,21.9,2.9,30.00,South,180,0.0,10.4,43,0.00,,,0.00,heavyweathercustom,2013-01-22 20:40:00,
2013-01-22 15:50:00,21.9,3.4,30.01,WSW,248,0.0,13.4,44,0.00,,,0.00,heavyweathercustom,2013-01-22 20:50:00,
2013-01-22 16:02:00,21.9,3.4,30.01,West,270,0.0,13.4,44,0.00,,,0.00,heavyweathercustom,2013-01-22 21:02:00,
2013-01-22 16:10:00,21.9,3.4,30.02,SE,135,3.3,13.4,44,0.00,,,0.00,heavyweathercustom,2013-01-22 21:10:00,
2013-01-22 16:20:00,21.7,3.7,30.03,WNW,293,0.0,11.7,45,0.00,,,0.00,heavyweathercustom,2013-01-22 21:20:00,
2013-01-22 16:32:00,21.4,3.4,30.04,ESE,113,10.1,11.7,45,0.00,,,0.00,heavyweathercustom,2013-01-22 21:32:00,
2013-01-22 16:40:00,21.0,3.5,30.04,ESE,113,0.0,24.6,46,0.00,,,0.00,heavyweathercustom,2013-01-22 21:40:00,
2013-01-22 16:50:00,20.8,3.3,30.04,ESE,113,6.8,24.6,46,0.00,,,0.00,heavyweathercustom,2013-01-22 21:50:00,
2013-01-22 17:02:00,20.7,3.2,30.05,SSE,158,0.0,24.6,46,0.00,,,0.00,heavyweathercustom,2013-01-22 22:02:00,
2013-01-22 17:10:00,20.5,2.6,30.05,ESE,113,6.8,24.6,45,0.00,,,0.00,heavyweathercustom,2013-01-22 22:10:00,
2013-01-22 17:20:00,20.1,2.2,30.06,ESE,113,3.3,24.6,45,0.00,,,0.00,heavyweathercustom,2013-01-22 22:20:00,
2013-01-22 17:32:00,19.9,2.5,30.06,ENE,68,0.0,14.1,46,0.00,,,0.00,heavyweathercustom,2013-01-22 22:32:00,
2013-01-22 17:40:00,19.8,2.4,30.08,ESE,113,3.3,26.7,46,0.00,,,0.00,heavyweathercustom,2013-01-22 22:40:00,
2013-01-22 17:50:00,19.8,2.9,30.09,SE,135,0.0,26.7,47,0.00,,,0.00,heavyweathercustom,2013-01-22 22:50:00,
2013-01-22 18:02:00,19.6,2.7,30.09,NE,45,6.8,26.7,47,0.00,,,0.00,heavyweathercustom,2013-01-22 23:02:00,
2013-01-22 18:10:00,19.4,2.9,30.10,SW,225,0.0,16.7,48,0.00,,,0.00,heavyweathercustom,2013-01-22 23:10:00,
2013-01-22 18:20:00,19.4,3.4,30.10,ESE,113,3.3,16.7,49,0.00,,,0.00,heavyweathercustom,2013-01-22 23:20:00,
2013-01-22 18:32:00,19.2,3.2,30.10,SE,135,0.0,16.7,49,0.00,,,0.00,heavyweathercustom,2013-01-22 23:32:00,
2013-01-22 18:40:00,19.0,3.5,30.09,SW,225,0.0,11.4,50,0.00,,,0.00,heavyweathercustom,2013-01-22 23:40:00,
2013-01-22 18:50:00,19.0,3.9,30.10,SW,225,0.0,11.4,51,0.00,,,0.00,heavyweathercustom,2013-01-22 23:50:00,
2013-01-22 19:02:00,19.0,3.9,30.10,SSE,158,3.3,11.4,51,0.00,,,0.00,heavyweathercustom,2013-01-23 00:02:00,
2013-01-22 19:10:00,18.9,3.8,30.10,West,270,0.0,15.0,51,0.00,,,0.00,heavyweathercustom,2013-01-23 00:10:00,
2013-01-22 19:20:00,18.9,3.8,30.11,SSW,203,0.0,15.0,51,0.00,,,0.00,heavyweathercustom,2013-01-23 00:20:00,
2013-01-22 19:32:00,18.7,3.6,30.11,South,180,0.0,15.0,51,0.00,,,0.00,heavyweathercustom,2013-01-23 00:32:00,
2013-01-22 19:40:00,18.5,3.8,30.12,ESE,113,0.0,15.0,52,0.00,,,0.00,heavyweathercustom,2013-01-23 00:40:00,
2013-01-22 19:50:00,18.3,3.7,30.13,NE,45,0.0,13.8,52,0.00,,,0.00,heavyweathercustom,2013-01-23 00:50:00,
2013-01-22 20:02:00,18.3,4.1,30.13,West,270,0.0,13.8,53,0.00,,,0.00,heavyweathercustom,2013-01-23 01:02:00,
2013-01-22 20:10:00,18.3,4.1,30.13,SSE,158,0.0,13.8,53,0.00,,,0.00,heavyweathercustom,2013-01-23 01:10:00,
2013-01-22 20:20:00,18.1,4.3,30.14,East,90,3.3,11.1,54,0.00,,,0.00,heavyweathercustom,2013-01-23 01:20:00,
2013-01-22 20:32:00,18.1,4.7,30.14,ENE,68,0.0,11.1,55,0.00,,,0.00,heavyweathercustom,2013-01-23 01:32:00,
2013-01-22 20:40:00,18.0,4.6,30.14,SE,135,0.0,11.1,55,0.00,,,0.00,heavyweathercustom,2013-01-23 01:40:00,
2013-01-22 20:50:00,17.8,4.0,30.14,WSW,248,0.0,13.4,54,0.00,,,0.00,heavyweathercustom,2013-01-23 01:50:00,
2013-01-22 21:02:00,17.8,4.0,30.14,SSW,203,0.0,13.4,54,0.00,,,0.00,heavyweathercustom,2013-01-23 02:02:00,
2013-01-22 21:10:00,17.8,4.0,30.14,ESE,113,0.0,13.4,54,0.00,,,0.00,heavyweathercustom,2013-01-23 02:10:00,
2013-01-22 21:20:00,17.8,4.0,30.14,East,90,0.0,16.2,54,0.00,,,0.00,heavyweathercustom,2013-01-23 02:20:00,
2013-01-22 21:32:00,17.4,2.8,30.15,WNW,293,0.0,16.2,52,0.00,,,0.00,heavyweathercustom,2013-01-23 02:32:00,
2013-01-22 21:40:00,17.2,2.2,30.14,SSE,158,0.0,16.2,51,0.00,,,0.00,heavyweathercustom,2013-01-23 02:40:00,
2013-01-22 21:50:00,16.9,1.5,30.14,ESE,113,10.1,16.2,50,0.00,,,0.00,heavyweathercustom,2013-01-23 02:50:00,
2013-01-22 22:02:00,16.5,0.7,30.15,SE,135,3.3,14.7,49,0.00,,,0.00,heavyweathercustom,2013-01-23 03:02:00,
2013-01-22 22:10:00,16.3,0.5,30.16,ESE,113,15.7,17.2,49,0.00,,,0.00,heavyweathercustom,2013-01-23 03:10:00,
2013-01-22 22:20:00,16.2,0.0,30.17,ESE,113,3.3,17.2,48,0.00,,,0.00,heavyweathercustom,2013-01-23 03:20:00,
2013-01-22 22:32:00,16.0,-0.2,30.17,WSW,248,0.0,17.2,48,0.00,,,0.00,heavyweathercustom,2013-01-23 03:32:00,
2013-01-22 22:40:00,16.0,-0.6,30.17,SE,135,0.0,14.3,47,0.00,,,0.00,heavyweathercustom,2013-01-23 03:40:00,
2013-01-22 22:50:00,16.0,-0.2,30.17,SSE,158,0.0,14.3,48,0.00,,,0.00,heavyweathercustom,2013-01-23 03:50:00,
2013-01-22 23:02:00,16.0,-0.2,30.17,SE,135,0.0,14.3,48,0.00,,,0.00,heavyweathercustom,2013-01-23 04:02:00,
2013-01-22 23:10:00,15.8,-0.8,30.17,WNW,293,0.0,14.1,47,0.00,,,0.00,heavyweathercustom,2013-01-23 04:10:00,
2013-01-22 23:20:00,15.8,-0.8,30.17,WNW,293,0.0,14.1,47,0.00,,,0.00,heavyweathercustom,2013-01-23 04:20:00,
2013-01-22 23:32:00,15.8,-0.4,30.17,West,270,0.0,14.1,48,0.00,,,0.00,heavyweathercustom,2013-01-23 04:32:00,
2013-01-22 23:40:00,15.8,-0.4,30.17,West,270,0.0,25.8,48,0.00,,,0.00,heavyweathercustom,2013-01-23 04:40:00,
2013-01-22 23:50:00,15.6,-0.6,30.17,NNW,338,0.0,25.8,48,0.00,,,0.00,heavyweathercustom,2013-01-23 04:50:00,